sensor_id;sensor_type;location;lat;lon;timestamp;P1;durP1;ratioP1;P2;durP2;ratioP2
75486;SDS011;65009;44.762;21.516;2023-01-08T00:00:41;59.00;;;30.47;;
75486;SDS011;65009;44.762;21.516;2023-01-08T00:03:07;89.43;;;45.13;;
75486;SDS011;65009;44.762;21.516;2023-01-08T00:05:33;220.77;;;124.90;;
75486;SDS011;65009;44.762;21.516;2023-01-08T00:08:00;122.93;;;65.67;;
75486;SDS011;65009;44.762;21.516;2023-01-08T00:10:26;94.40;;;49.50;;
75486;SDS011;65009;44.762;21.516;2023-01-08T00:12:53;139.77;;;69.00;;
75486;SDS011;65009;44.762;21.516;2023-01-08T00:15:20;183.60;;;90.87;;
75486;SDS011;65009;44.762;21.516;2023-01-08T00:17:46;183.93;;;90.80;;
75486;SDS011;65009;44.762;21.516;2023-01-08T00:20:12;178.00;;;89.97;;
75486;SDS011;65009;44.762;21.516;2023-01-08T00:22:38;177.03;;;87.50;;
75486;SDS011;65009;44.762;21.516;2023-01-08T00:25:04;86.03;;;41.47;;
75486;SDS011;65009;44.762;21.516;2023-01-08T00:27:30;53.00;;;27.07;;
75486;SDS011;65009;44.762;21.516;2023-01-08T00:29:57;63.23;;;32.67;;
75486;SDS011;65009;44.762;21.516;2023-01-08T00:32:23;51.70;;;25.47;;
75486;SDS011;65009;44.762;21.516;2023-01-08T00:34:49;76.73;;;38.83;;
75486;SDS011;65009;44.762;21.516;2023-01-08T00:37:15;122.80;;;60.97;;
75486;SDS011;65009;44.762;21.516;2023-01-08T00:39:44;160.83;;;78.07;;
75486;SDS011;65009;44.762;21.516;2023-01-08T00:42:10;75.67;;;38.27;;
75486;SDS011;65009;44.762;21.516;2023-01-08T00:44:37;115.57;;;57.57;;
75486;SDS011;65009;44.762;21.516;2023-01-08T00:47:03;65.73;;;35.87;;
75486;SDS011;65009;44.762;21.516;2023-01-08T00:49:29;33.73;;;19.97;;
75486;SDS011;65009;44.762;21.516;2023-01-08T00:51:55;35.47;;;19.77;;
75486;SDS011;65009;44.762;21.516;2023-01-08T00:54:21;30.27;;;18.57;;
75486;SDS011;65009;44.762;21.516;2023-01-08T00:56:47;35.20;;;18.50;;
75486;SDS011;65009;44.762;21.516;2023-01-08T00:59:13;34.37;;;19.17;;
75486;SDS011;65009;44.762;21.516;2023-01-08T01:01:40;29.03;;;16.70;;
75486;SDS011;65009;44.762;21.516;2023-01-08T01:04:06;33.17;;;19.20;;
75486;SDS011;65009;44.762;21.516;2023-01-08T01:06:32;33.43;;;19.57;;
75486;SDS011;65009;44.762;21.516;2023-01-08T01:08:58;27.23;;;15.80;;
75486;SDS011;65009;44.762;21.516;2023-01-08T01:11:25;27.20;;;15.73;;
75486;SDS011;65009;44.762;21.516;2023-01-08T01:13:53;29.43;;;17.60;;
75486;SDS011;65009;44.762;21.516;2023-01-08T01:16:19;33.27;;;18.80;;
75486;SDS011;65009;44.762;21.516;2023-01-08T01:18:46;40.23;;;22.50;;
75486;SDS011;65009;44.762;21.516;2023-01-08T01:21:14;37.03;;;20.40;;
75486;SDS011;65009;44.762;21.516;2023-01-08T01:23:43;43.03;;;24.15;;
75486;SDS011;65009;44.762;21.516;2023-01-08T01:26:16;47.57;;;26.63;;
75486;SDS011;65009;44.762;21.516;2023-01-08T01:28:42;45.57;;;25.60;;
75486;SDS011;65009;44.762;21.516;2023-01-08T01:31:09;48.23;;;27.07;;
75486;SDS011;65009;44.762;21.516;2023-01-08T01:33:38;41.67;;;23.70;;
75486;SDS011;65009;44.762;21.516;2023-01-08T01:36:04;39.33;;;23.60;;
75486;SDS011;65009;44.762;21.516;2023-01-08T01:38:31;38.13;;;21.77;;
75486;SDS011;65009;44.762;21.516;2023-01-08T01:40:57;39.53;;;22.67;;
75486;SDS011;65009;44.762;21.516;2023-01-08T01:43:36;39.30;;;22.23;;
75486;SDS011;65009;44.762;21.516;2023-01-08T01:46:04;40.40;;;21.67;;
75486;SDS011;65009;44.762;21.516;2023-01-08T01:48:31;37.97;;;20.73;;
75486;SDS011;65009;44.762;21.516;2023-01-08T01:50:57;34.70;;;19.13;;
75486;SDS011;65009;44.762;21.516;2023-01-08T01:53:26;33.93;;;19.07;;
75486;SDS011;65009;44.762;21.516;2023-01-08T01:55:54;33.00;;;18.73;;
75486;SDS011;65009;44.762;21.516;2023-01-08T01:58:23;32.93;;;18.20;;
75486;SDS011;65009;44.762;21.516;2023-01-08T02:00:49;45.73;;;22.80;;
75486;SDS011;65009;44.762;21.516;2023-01-08T02:03:19;46.30;;;24.90;;
75486;SDS011;65009;44.762;21.516;2023-01-08T02:14:21;44.20;;;23.40;;
75486;SDS011;65009;44.762;21.516;2023-01-08T02:16:56;46.67;;;24.70;;
75486;SDS011;65009;44.762;21.516;2023-01-08T02:19:30;51.07;;;28.17;;
75486;SDS011;65009;44.762;21.516;2023-01-08T02:24:42;68.67;;;35.53;;
75486;SDS011;65009;44.762;21.516;2023-01-08T02:27:12;65.60;;;34.17;;
75486;SDS011;65009;44.762;21.516;2023-01-08T02:29:39;68.67;;;35.17;;
75486;SDS011;65009;44.762;21.516;2023-01-08T02:32:05;75.30;;;37.03;;
75486;SDS011;65009;44.762;21.516;2023-01-08T02:34:32;74.80;;;36.73;;
75486;SDS011;65009;44.762;21.516;2023-01-08T02:36:58;72.33;;;39.23;;
75486;SDS011;65009;44.762;21.516;2023-01-08T02:42:20;74.27;;;39.73;;
75486;SDS011;65009;44.762;21.516;2023-01-08T02:44:54;52.33;;;28.83;;
75486;SDS011;65009;44.762;21.516;2023-01-08T02:47:27;41.90;;;25.30;;
75486;SDS011;65009;44.762;21.516;2023-01-08T02:50:02;41.40;;;24.57;;
75486;SDS011;65009;44.762;21.516;2023-01-08T02:52:31;34.13;;;19.67;;
75486;SDS011;65009;44.762;21.516;2023-01-08T02:54:59;35.93;;;22.43;;
75486;SDS011;65009;44.762;21.516;2023-01-08T02:57:26;36.13;;;19.37;;
75486;SDS011;65009;44.762;21.516;2023-01-08T02:59:54;30.47;;;16.87;;
75486;SDS011;65009;44.762;21.516;2023-01-08T03:02:20;38.07;;;20.93;;
75486;SDS011;65009;44.762;21.516;2023-01-08T03:04:52;34.87;;;19.30;;
75486;SDS011;65009;44.762;21.516;2023-01-08T03:07:19;43.33;;;23.90;;
75486;SDS011;65009;44.762;21.516;2023-01-08T03:09:45;38.57;;;21.50;;
75486;SDS011;65009;44.762;21.516;2023-01-08T03:12:30;41.20;;;23.10;;
75486;SDS011;65009;44.762;21.516;2023-01-08T03:15:05;44.03;;;21.20;;
75486;SDS011;65009;44.762;21.516;2023-01-08T03:17:33;44.77;;;22.03;;
75486;SDS011;65009;44.762;21.516;2023-01-08T03:20:14;37.73;;;20.53;;
75486;SDS011;65009;44.762;21.516;2023-01-08T03:22:41;37.80;;;19.40;;
75486;SDS011;65009;44.762;21.516;2023-01-08T03:25:09;34.37;;;17.97;;
75486;SDS011;65009;44.762;21.516;2023-01-08T03:27:37;33.90;;;17.27;;
75486;SDS011;65009;44.762;21.516;2023-01-08T03:30:04;32.60;;;17.93;;
75486;SDS011;65009;44.762;21.516;2023-01-08T03:32:32;31.07;;;17.10;;
75486;SDS011;65009;44.762;21.516;2023-01-08T03:34:59;32.07;;;17.10;;
75486;SDS011;65009;44.762;21.516;2023-01-08T03:37:31;30.10;;;17.13;;
75486;SDS011;65009;44.762;21.516;2023-01-08T03:40:04;32.10;;;16.23;;
75486;SDS011;65009;44.762;21.516;2023-01-08T03:42:32;31.87;;;17.53;;
75486;SDS011;65009;44.762;21.516;2023-01-08T03:44:59;34.03;;;19.23;;
75486;SDS011;65009;44.762;21.516;2023-01-08T03:47:26;39.80;;;20.87;;
75486;SDS011;65009;44.762;21.516;2023-01-08T03:49:53;38.40;;;21.73;;
75486;SDS011;65009;44.762;21.516;2023-01-08T03:52:24;52.43;;;25.90;;
75486;SDS011;65009;44.762;21.516;2023-01-08T03:54:51;44.63;;;25.17;;
75486;SDS011;65009;44.762;21.516;2023-01-08T03:57:17;47.70;;;24.57;;
75486;SDS011;65009;44.762;21.516;2023-01-08T03:59:43;49.80;;;29.00;;
75486;SDS011;65009;44.762;21.516;2023-01-08T04:02:10;52.13;;;29.50;;
75486;SDS011;65009;44.762;21.516;2023-01-08T04:04:36;49.30;;;27.50;;
75486;SDS011;65009;44.762;21.516;2023-01-08T04:07:02;60.43;;;34.53;;
75486;SDS011;65009;44.762;21.516;2023-01-08T04:09:29;73.53;;;38.97;;
75486;SDS011;65009;44.762;21.516;2023-01-08T04:11:55;69.60;;;38.30;;
75486;SDS011;65009;44.762;21.516;2023-01-08T04:14:21;68.23;;;35.20;;
75486;SDS011;65009;44.762;21.516;2023-01-08T04:16:47;52.07;;;26.17;;
75486;SDS011;65009;44.762;21.516;2023-01-08T04:19:13;50.73;;;29.00;;
75486;SDS011;65009;44.762;21.516;2023-01-08T04:21:40;53.10;;;28.43;;
75486;SDS011;65009;44.762;21.516;2023-01-08T04:24:06;61.17;;;29.87;;
75486;SDS011;65009;44.762;21.516;2023-01-08T04:26:32;62.63;;;31.17;;
75486;SDS011;65009;44.762;21.516;2023-01-08T04:29:01;72.27;;;34.80;;
75486;SDS011;65009;44.762;21.516;2023-01-08T04:31:28;54.37;;;27.50;;
75486;SDS011;65009;44.762;21.516;2023-01-08T04:33:54;56.63;;;29.13;;
75486;SDS011;65009;44.762;21.516;2023-01-08T04:36:20;65.60;;;33.07;;
75486;SDS011;65009;44.762;21.516;2023-01-08T04:38:46;55.27;;;30.77;;
75486;SDS011;65009;44.762;21.516;2023-01-08T04:41:12;49.17;;;28.70;;
75486;SDS011;65009;44.762;21.516;2023-01-08T04:43:38;54.23;;;28.20;;
75486;SDS011;65009;44.762;21.516;2023-01-08T04:46:05;50.40;;;27.27;;
75486;SDS011;65009;44.762;21.516;2023-01-08T04:48:33;52.13;;;30.17;;
75486;SDS011;65009;44.762;21.516;2023-01-08T04:50:59;54.90;;;29.47;;
75486;SDS011;65009;44.762;21.516;2023-01-08T04:53:26;49.70;;;27.60;;
75486;SDS011;65009;44.762;21.516;2023-01-08T04:55:52;52.17;;;29.00;;
75486;SDS011;65009;44.762;21.516;2023-01-08T04:58:19;56.10;;;29.87;;
75486;SDS011;65009;44.762;21.516;2023-01-08T05:00:45;56.33;;;32.17;;
75486;SDS011;65009;44.762;21.516;2023-01-08T05:03:11;66.40;;;36.40;;
75486;SDS011;65009;44.762;21.516;2023-01-08T05:05:39;57.07;;;32.43;;
75486;SDS011;65009;44.762;21.516;2023-01-08T05:08:05;52.97;;;29.63;;
75486;SDS011;65009;44.762;21.516;2023-01-08T05:10:31;45.60;;;25.17;;
75486;SDS011;65009;44.762;21.516;2023-01-08T05:13:00;44.20;;;23.67;;
75486;SDS011;65009;44.762;21.516;2023-01-08T05:15:27;37.80;;;20.17;;
75486;SDS011;65009;44.762;21.516;2023-01-08T05:17:56;36.30;;;19.27;;
75486;SDS011;65009;44.762;21.516;2023-01-08T05:20:23;33.63;;;18.70;;
75486;SDS011;65009;44.762;21.516;2023-01-08T05:22:49;39.87;;;19.43;;
75486;SDS011;65009;44.762;21.516;2023-01-08T05:25:15;37.73;;;18.87;;
75486;SDS011;65009;44.762;21.516;2023-01-08T05:27:41;38.23;;;19.97;;
75486;SDS011;65009;44.762;21.516;2023-01-08T05:30:07;48.80;;;21.23;;
75486;SDS011;65009;44.762;21.516;2023-01-08T05:32:34;46.53;;;22.90;;
75486;SDS011;65009;44.762;21.516;2023-01-08T05:35:00;49.80;;;23.10;;
75486;SDS011;65009;44.762;21.516;2023-01-08T05:37:26;50.37;;;24.57;;
75486;SDS011;65009;44.762;21.516;2023-01-08T05:39:52;54.67;;;25.80;;
75486;SDS011;65009;44.762;21.516;2023-01-08T05:42:19;57.13;;;28.33;;
75486;SDS011;65009;44.762;21.516;2023-01-08T05:44:45;71.97;;;33.20;;
75486;SDS011;65009;44.762;21.516;2023-01-08T05:47:11;59.50;;;30.33;;
75486;SDS011;65009;44.762;21.516;2023-01-08T05:49:37;67.70;;;27.17;;
75486;SDS011;65009;44.762;21.516;2023-01-08T05:52:03;51.83;;;25.63;;
75486;SDS011;65009;44.762;21.516;2023-01-08T05:54:29;53.20;;;27.27;;
75486;SDS011;65009;44.762;21.516;2023-01-08T05:56:55;44.10;;;23.67;;
75486;SDS011;65009;44.762;21.516;2023-01-08T05:59:22;41.47;;;23.37;;
75486;SDS011;65009;44.762;21.516;2023-01-08T06:01:48;45.83;;;23.27;;
75486;SDS011;65009;44.762;21.516;2023-01-08T06:04:14;44.57;;;23.73;;
75486;SDS011;65009;44.762;21.516;2023-01-08T06:06:40;41.03;;;22.47;;
75486;SDS011;65009;44.762;21.516;2023-01-08T06:09:06;42.00;;;22.13;;
75486;SDS011;65009;44.762;21.516;2023-01-08T06:11:33;31.87;;;19.57;;
75486;SDS011;65009;44.762;21.516;2023-01-08T06:13:59;30.07;;;18.00;;
75486;SDS011;65009;44.762;21.516;2023-01-08T06:16:25;31.60;;;17.90;;
75486;SDS011;65009;44.762;21.516;2023-01-08T06:18:52;38.53;;;21.67;;
75486;SDS011;65009;44.762;21.516;2023-01-08T06:21:18;55.17;;;33.20;;
75486;SDS011;65009;44.762;21.516;2023-01-08T06:23:44;57.40;;;32.23;;
75486;SDS011;65009;44.762;21.516;2023-01-08T06:26:10;51.97;;;31.17;;
75486;SDS011;65009;44.762;21.516;2023-01-08T06:28:36;57.73;;;34.20;;
75486;SDS011;65009;44.762;21.516;2023-01-08T06:31:03;76.20;;;43.20;;
75486;SDS011;65009;44.762;21.516;2023-01-08T06:33:29;70.07;;;41.17;;
75486;SDS011;65009;44.762;21.516;2023-01-08T06:36:02;65.40;;;35.93;;
75486;SDS011;65009;44.762;21.516;2023-01-08T06:38:29;78.10;;;41.83;;
75486;SDS011;65009;44.762;21.516;2023-01-08T06:40:56;112.63;;;61.67;;
75486;SDS011;65009;44.762;21.516;2023-01-08T06:43:22;99.90;;;51.97;;
75486;SDS011;65009;44.762;21.516;2023-01-08T06:45:52;99.63;;;53.30;;
75486;SDS011;65009;44.762;21.516;2023-01-08T06:48:18;100.77;;;53.37;;
75486;SDS011;65009;44.762;21.516;2023-01-08T06:50:45;91.43;;;49.87;;
75486;SDS011;65009;44.762;21.516;2023-01-08T06:53:11;79.57;;;41.50;;
75486;SDS011;65009;44.762;21.516;2023-01-08T06:55:37;68.37;;;39.87;;
75486;SDS011;65009;44.762;21.516;2023-01-08T06:58:04;61.47;;;35.07;;
75486;SDS011;65009;44.762;21.516;2023-01-08T07:00:30;66.50;;;40.13;;
75486;SDS011;65009;44.762;21.516;2023-01-08T07:02:56;67.40;;;35.57;;
75486;SDS011;65009;44.762;21.516;2023-01-08T07:05:22;61.00;;;35.90;;
75486;SDS011;65009;44.762;21.516;2023-01-08T07:07:48;58.10;;;35.37;;
75486;SDS011;65009;44.762;21.516;2023-01-08T07:10:15;67.37;;;36.87;;
75486;SDS011;65009;44.762;21.516;2023-01-08T07:12:41;66.60;;;35.20;;
75486;SDS011;65009;44.762;21.516;2023-01-08T07:15:07;71.17;;;40.70;;
75486;SDS011;65009;44.762;21.516;2023-01-08T07:17:33;69.13;;;42.40;;
75486;SDS011;65009;44.762;21.516;2023-01-08T07:19:59;66.10;;;43.07;;
75486;SDS011;65009;44.762;21.516;2023-01-08T07:22:26;61.03;;;38.63;;
75486;SDS011;65009;44.762;21.516;2023-01-08T07:24:52;57.90;;;36.13;;
75486;SDS011;65009;44.762;21.516;2023-01-08T07:27:18;54.40;;;33.47;;
75486;SDS011;65009;44.762;21.516;2023-01-08T07:29:44;44.20;;;29.27;;
75486;SDS011;65009;44.762;21.516;2023-01-08T07:32:11;38.70;;;25.33;;
75486;SDS011;65009;44.762;21.516;2023-01-08T07:34:37;47.10;;;28.70;;
75486;SDS011;65009;44.762;21.516;2023-01-08T07:37:03;41.53;;;26.23;;
75486;SDS011;65009;44.762;21.516;2023-01-08T07:39:29;57.03;;;36.57;;
75486;SDS011;65009;44.762;21.516;2023-01-08T07:41:56;55.73;;;35.17;;
75486;SDS011;65009;44.762;21.516;2023-01-08T07:44:22;44.17;;;28.77;;
75486;SDS011;65009;44.762;21.516;2023-01-08T07:46:48;66.00;;;40.37;;
75486;SDS011;65009;44.762;21.516;2023-01-08T07:49:14;46.73;;;29.17;;
75486;SDS011;65009;44.762;21.516;2023-01-08T07:51:41;51.27;;;32.80;;
75486;SDS011;65009;44.762;21.516;2023-01-08T07:54:07;44.67;;;29.13;;
75486;SDS011;65009;44.762;21.516;2023-01-08T07:56:33;56.40;;;32.47;;
75486;SDS011;65009;44.762;21.516;2023-01-08T07:58:59;50.63;;;30.60;;
75486;SDS011;65009;44.762;21.516;2023-01-08T08:01:26;37.83;;;26.30;;
75486;SDS011;65009;44.762;21.516;2023-01-08T08:03:52;29.83;;;18.70;;
75486;SDS011;65009;44.762;21.516;2023-01-08T08:06:18;34.33;;;23.73;;
75486;SDS011;65009;44.762;21.516;2023-01-08T08:08:44;40.13;;;24.33;;
75486;SDS011;65009;44.762;21.516;2023-01-08T08:11:10;42.33;;;27.73;;
75486;SDS011;65009;44.762;21.516;2023-01-08T08:13:36;59.03;;;35.63;;
75486;SDS011;65009;44.762;21.516;2023-01-08T08:16:06;44.47;;;31.10;;
75486;SDS011;65009;44.762;21.516;2023-01-08T08:18:32;46.47;;;30.48;;
75486;SDS011;65009;44.762;21.516;2023-01-08T08:20:58;55.10;;;38.50;;
75486;SDS011;65009;44.762;21.516;2023-01-08T08:23:25;56.67;;;38.45;;
75486;SDS011;65009;44.762;21.516;2023-01-08T08:25:51;45.42;;;32.03;;
75486;SDS011;65009;44.762;21.516;2023-01-08T08:28:17;41.80;;;29.05;;
75486;SDS011;65009;44.762;21.516;2023-01-08T08:30:43;39.60;;;26.67;;
75486;SDS011;65009;44.762;21.516;2023-01-08T08:33:09;39.47;;;25.65;;
75486;SDS011;65009;44.762;21.516;2023-01-08T08:35:36;42.22;;;27.73;;
75486;SDS011;65009;44.762;21.516;2023-01-08T08:38:02;38.75;;;23.38;;
75486;SDS011;65009;44.762;21.516;2023-01-08T08:40:28;32.25;;;20.60;;
75486;SDS011;65009;44.762;21.516;2023-01-08T08:42:58;38.50;;;20.73;;
75486;SDS011;65009;44.762;21.516;2023-01-08T08:45:25;33.97;;;20.50;;
75486;SDS011;65009;44.762;21.516;2023-01-08T08:47:51;30.00;;;18.83;;
75486;SDS011;65009;44.762;21.516;2023-01-08T08:50:18;24.73;;;15.43;;
75486;SDS011;65009;44.762;21.516;2023-01-08T08:52:44;24.08;;;13.68;;
75486;SDS011;65009;44.762;21.516;2023-01-08T08:55:13;17.02;;;12.90;;
75486;SDS011;65009;44.762;21.516;2023-01-08T08:57:41;19.02;;;12.95;;
75486;SDS011;65009;44.762;21.516;2023-01-08T09:00:07;18.60;;;13.25;;
75486;SDS011;65009;44.762;21.516;2023-01-08T09:02:33;20.30;;;13.05;;
75486;SDS011;65009;44.762;21.516;2023-01-08T09:04:59;21.58;;;13.43;;
75486;SDS011;65009;44.762;21.516;2023-01-08T09:07:25;19.92;;;12.63;;
75486;SDS011;65009;44.762;21.516;2023-01-08T09:09:52;16.42;;;12.23;;
75486;SDS011;65009;44.762;21.516;2023-01-08T09:12:18;18.42;;;12.68;;
75486;SDS011;65009;44.762;21.516;2023-01-08T09:14:44;17.17;;;12.20;;
75486;SDS011;65009;44.762;21.516;2023-01-08T09:17:10;21.60;;;12.30;;
75486;SDS011;65009;44.762;21.516;2023-01-08T09:19:36;16.77;;;10.00;;
75486;SDS011;65009;44.762;21.516;2023-01-08T09:22:03;14.98;;;10.02;;
75486;SDS011;65009;44.762;21.516;2023-01-08T09:24:29;13.40;;;10.32;;
75486;SDS011;65009;44.762;21.516;2023-01-08T09:26:56;17.08;;;11.02;;
75486;SDS011;65009;44.762;21.516;2023-01-08T09:29:23;16.65;;;10.52;;
75486;SDS011;65009;44.762;21.516;2023-01-08T09:31:49;18.67;;;12.95;;
75486;SDS011;65009;44.762;21.516;2023-01-08T09:34:15;18.33;;;11.27;;
75486;SDS011;65009;44.762;21.516;2023-01-08T09:36:41;14.90;;;11.38;;
75486;SDS011;65009;44.762;21.516;2023-01-08T09:39:07;18.35;;;11.95;;
75486;SDS011;65009;44.762;21.516;2023-01-08T09:41:35;14.93;;;10.43;;
75486;SDS011;65009;44.762;21.516;2023-01-08T09:44:03;19.30;;;13.18;;
75486;SDS011;65009;44.762;21.516;2023-01-08T09:46:30;18.05;;;11.50;;
75486;SDS011;65009;44.762;21.516;2023-01-08T09:49:00;18.08;;;10.85;;
75486;SDS011;65009;44.762;21.516;2023-01-08T09:51:37;14.18;;;10.75;;
75486;SDS011;65009;44.762;21.516;2023-01-08T09:54:04;14.80;;;10.38;;
75486;SDS011;65009;44.762;21.516;2023-01-08T09:56:34;25.25;;;16.80;;
75486;SDS011;65009;44.762;21.516;2023-01-08T09:59:02;17.95;;;13.35;;
75486;SDS011;65009;44.762;21.516;2023-01-08T10:01:29;22.60;;;14.52;;
75486;SDS011;65009;44.762;21.516;2023-01-08T10:04:13;18.38;;;14.40;;
75486;SDS011;65009;44.762;21.516;2023-01-08T10:06:40;21.67;;;13.77;;
75486;SDS011;65009;44.762;21.516;2023-01-08T10:09:10;20.30;;;14.90;;
75486;SDS011;65009;44.762;21.516;2023-01-08T10:11:39;18.08;;;12.27;;
75486;SDS011;65009;44.762;21.516;2023-01-08T10:14:07;20.73;;;12.93;;
75486;SDS011;65009;44.762;21.516;2023-01-08T10:16:38;20.67;;;13.60;;
75486;SDS011;65009;44.762;21.516;2023-01-08T10:19:07;30.90;;;19.25;;
75486;SDS011;65009;44.762;21.516;2023-01-08T10:21:38;27.73;;;17.70;;
75486;SDS011;65009;44.762;21.516;2023-01-08T10:24:05;18.08;;;13.35;;
75486;SDS011;65009;44.762;21.516;2023-01-08T10:26:32;16.80;;;11.98;;
75486;SDS011;65009;44.762;21.516;2023-01-08T10:29:15;15.32;;;11.10;;
75486;SDS011;65009;44.762;21.516;2023-01-08T10:31:52;20.10;;;13.82;;
75486;SDS011;65009;44.762;21.516;2023-01-08T10:34:38;19.27;;;13.50;;
75486;SDS011;65009;44.762;21.516;2023-01-08T10:39:45;13.52;;;10.27;;
75486;SDS011;65009;44.762;21.516;2023-01-08T10:42:12;14.90;;;9.73;;
75486;SDS011;65009;44.762;21.516;2023-01-08T10:44:51;29.92;;;15.73;;
75486;SDS011;65009;44.762;21.516;2023-01-08T10:47:18;27.70;;;17.30;;
75486;SDS011;65009;44.762;21.516;2023-01-08T10:49:44;16.20;;;10.98;;
75486;SDS011;65009;44.762;21.516;2023-01-08T10:52:24;15.55;;;11.38;;
75486;SDS011;65009;44.762;21.516;2023-01-08T10:54:50;22.40;;;14.15;;
75486;SDS011;65009;44.762;21.516;2023-01-08T10:57:27;18.08;;;13.23;;
75486;SDS011;65009;44.762;21.516;2023-01-08T10:59:54;16.02;;;11.18;;
75486;SDS011;65009;44.762;21.516;2023-01-08T11:02:27;20.10;;;12.95;;
75486;SDS011;65009;44.762;21.516;2023-01-08T11:04:54;15.20;;;11.57;;
75486;SDS011;65009;44.762;21.516;2023-01-08T11:07:21;20.23;;;11.80;;
75486;SDS011;65009;44.762;21.516;2023-01-08T11:09:49;14.07;;;10.48;;
75486;SDS011;65009;44.762;21.516;2023-01-08T11:12:30;16.98;;;8.95;;
75486;SDS011;65009;44.762;21.516;2023-01-08T11:14:57;15.70;;;9.25;;
75486;SDS011;65009;44.762;21.516;2023-01-08T11:17:23;17.15;;;10.77;;
75486;SDS011;65009;44.762;21.516;2023-01-08T11:19:50;15.35;;;10.25;;
75486;SDS011;65009;44.762;21.516;2023-01-08T11:22:18;20.60;;;13.65;;
75486;SDS011;65009;44.762;21.516;2023-01-08T11:24:45;13.68;;;10.68;;
75486;SDS011;65009;44.762;21.516;2023-01-08T11:27:31;16.95;;;10.65;;
75486;SDS011;65009;44.762;21.516;2023-01-08T11:32:43;16.70;;;10.75;;
75486;SDS011;65009;44.762;21.516;2023-01-08T11:35:16;21.15;;;13.18;;
75486;SDS011;65009;44.762;21.516;2023-01-08T11:37:45;31.88;;;20.77;;
75486;SDS011;65009;44.762;21.516;2023-01-08T11:40:14;20.25;;;12.23;;
75486;SDS011;65009;44.762;21.516;2023-01-08T11:42:45;14.45;;;10.13;;
75486;SDS011;65009;44.762;21.516;2023-01-08T11:50:20;19.70;;;11.88;;
75486;SDS011;65009;44.762;21.516;2023-01-08T11:52:52;23.05;;;15.13;;
75486;SDS011;65009;44.762;21.516;2023-01-08T12:00:18;11.63;;;9.85;;
75486;SDS011;65009;44.762;21.516;2023-01-08T12:02:55;15.05;;;11.80;;
75486;SDS011;65009;44.762;21.516;2023-01-08T12:05:29;14.25;;;9.38;;
75486;SDS011;65009;44.762;21.516;2023-01-08T12:08:04;21.10;;;12.13;;
75486;SDS011;65009;44.762;21.516;2023-01-08T12:15:49;21.75;;;12.82;;
75486;SDS011;65009;44.762;21.516;2023-01-08T12:21:01;11.82;;;8.57;;
75486;SDS011;65009;44.762;21.516;2023-01-08T12:26:07;13.30;;;9.75;;
75486;SDS011;65009;44.762;21.516;2023-01-08T12:36:44;17.75;;;11.32;;
75486;SDS011;65009;44.762;21.516;2023-01-08T12:39:13;16.50;;;10.95;;
75486;SDS011;65009;44.762;21.516;2023-01-08T12:41:40;18.05;;;13.00;;
75486;SDS011;65009;44.762;21.516;2023-01-08T12:44:09;17.67;;;10.75;;
75486;SDS011;65009;44.762;21.516;2023-01-08T12:46:44;16.73;;;11.70;;
75486;SDS011;65009;44.762;21.516;2023-01-08T12:49:12;23.40;;;15.07;;
75486;SDS011;65009;44.762;21.516;2023-01-08T12:51:44;15.48;;;9.93;;
75486;SDS011;65009;44.762;21.516;2023-01-08T12:56:51;14.55;;;10.27;;
75486;SDS011;65009;44.762;21.516;2023-01-08T12:59:31;15.88;;;10.25;;
75486;SDS011;65009;44.762;21.516;2023-01-08T13:04:44;21.60;;;12.65;;
75486;SDS011;65009;44.762;21.516;2023-01-08T13:07:15;24.52;;;13.45;;
75486;SDS011;65009;44.762;21.516;2023-01-08T13:09:43;25.52;;;15.25;;
75486;SDS011;65009;44.762;21.516;2023-01-08T13:12:12;14.77;;;10.15;;
75486;SDS011;65009;44.762;21.516;2023-01-08T13:14:39;17.05;;;11.20;;
75486;SDS011;65009;44.762;21.516;2023-01-08T13:17:07;24.08;;;15.25;;
75486;SDS011;65009;44.762;21.516;2023-01-08T13:19:41;24.40;;;13.90;;
75486;SDS011;65009;44.762;21.516;2023-01-08T13:27:38;23.67;;;15.65;;
75486;SDS011;65009;44.762;21.516;2023-01-08T13:30:28;21.65;;;13.48;;
75486;SDS011;65009;44.762;21.516;2023-01-08T13:32:50;20.95;;;13.02;;
75486;SDS011;65009;44.762;21.516;2023-01-08T13:35:18;22.88;;;14.88;;
75486;SDS011;65009;44.762;21.516;2023-01-08T13:37:46;24.27;;;14.65;;
75486;SDS011;65009;44.762;21.516;2023-01-08T13:42:58;23.70;;;15.23;;
75486;SDS011;65009;44.762;21.516;2023-01-08T13:45:25;25.15;;;15.90;;
75486;SDS011;65009;44.762;21.516;2023-01-08T13:47:53;24.17;;;17.42;;
75486;SDS011;65009;44.762;21.516;2023-01-08T13:50:20;19.52;;;13.75;;
75486;SDS011;65009;44.762;21.516;2023-01-08T13:55:27;28.70;;;17.80;;
75486;SDS011;65009;44.762;21.516;2023-01-08T13:57:54;26.23;;;17.88;;
75486;SDS011;65009;44.762;21.516;2023-01-08T14:00:24;23.70;;;16.38;;
75486;SDS011;65009;44.762;21.516;2023-01-08T14:02:51;22.77;;;14.93;;
75486;SDS011;65009;44.762;21.516;2023-01-08T14:05:26;26.50;;;18.63;;
75486;SDS011;65009;44.762;21.516;2023-01-08T14:07:53;25.38;;;16.30;;
75486;SDS011;65009;44.762;21.516;2023-01-08T14:10:19;29.52;;;16.23;;
75486;SDS011;65009;44.762;21.516;2023-01-08T14:12:45;33.90;;;17.38;;
75486;SDS011;65009;44.762;21.516;2023-01-08T14:15:16;31.10;;;18.23;;
75486;SDS011;65009;44.762;21.516;2023-01-08T14:17:44;27.45;;;16.10;;
75486;SDS011;65009;44.762;21.516;2023-01-08T14:20:10;27.23;;;17.80;;
75486;SDS011;65009;44.762;21.516;2023-01-08T14:22:37;29.33;;;17.92;;
75486;SDS011;65009;44.762;21.516;2023-01-08T14:25:06;32.00;;;19.85;;
75486;SDS011;65009;44.762;21.516;2023-01-08T14:27:32;34.13;;;19.02;;
75486;SDS011;65009;44.762;21.516;2023-01-08T14:29:59;39.33;;;19.90;;
75486;SDS011;65009;44.762;21.516;2023-01-08T14:32:26;28.10;;;18.45;;
75486;SDS011;65009;44.762;21.516;2023-01-08T14:34:56;33.75;;;17.63;;
75486;SDS011;65009;44.762;21.516;2023-01-08T14:37:24;34.45;;;19.20;;
75486;SDS011;65009;44.762;21.516;2023-01-08T14:39:51;44.35;;;19.58;;
75486;SDS011;65009;44.762;21.516;2023-01-08T14:42:18;36.38;;;20.40;;
75486;SDS011;65009;44.762;21.516;2023-01-08T14:45:04;38.20;;;19.33;;
75486;SDS011;65009;44.762;21.516;2023-01-08T14:47:51;45.75;;;23.88;;
75486;SDS011;65009;44.762;21.516;2023-01-08T14:53:22;43.88;;;23.92;;
75486;SDS011;65009;44.762;21.516;2023-01-08T14:55:49;49.22;;;26.92;;
75486;SDS011;65009;44.762;21.516;2023-01-08T14:58:20;50.85;;;27.67;;
75486;SDS011;65009;44.762;21.516;2023-01-08T15:00:53;56.72;;;27.92;;
75486;SDS011;65009;44.762;21.516;2023-01-08T15:05:59;44.30;;;23.67;;
75486;SDS011;65009;44.762;21.516;2023-01-08T15:08:47;49.38;;;26.25;;
75486;SDS011;65009;44.762;21.516;2023-01-08T15:11:19;42.80;;;24.40;;
75486;SDS011;65009;44.762;21.516;2023-01-08T15:13:46;50.27;;;25.83;;
75486;SDS011;65009;44.762;21.516;2023-01-08T15:18:50;56.60;;;28.57;;
75486;SDS011;65009;44.762;21.516;2023-01-08T15:21:20;52.77;;;28.57;;
75486;SDS011;65009;44.762;21.516;2023-01-08T15:23:50;60.97;;;30.87;;
75486;SDS011;65009;44.762;21.516;2023-01-08T15:26:19;63.92;;;30.48;;